Terminal Aerodrome Forecast
Issued by NWS Shreveport, LA

Home | Current Version | Previous Version | Text Only | Print | Product List | Glossary On
Versions: 1 2 3 4 5 6 7 8 9 10 11 12 13 14 15 16
000
FTUS44 KSHV 181351 AAA
TAFGGG
TAF AMD
KGGG 181351Z 1814/1912 VRB03KT 1/2SM FG VV002
      TEMPO 1814/1817 3SM BR OVC010
     FM181700 10004KT 5SM BR OVC015
     FM190200 13004KT 3SM BR OVC005
     FM190600 15004KT 1SM BR VCSH OVC002=

USA.gov is the U.S. government's official web portal to all federal, state and local government web resources and services.